Fure West — OZ2100 — position and weather

sailwx.info

Track history (hours):
 
Tides and Currents Weather Stations Pressure Air Temp Water Temp Dewpoint Dewpoint Depression Visibility Wind Speed Wind Dir Waves Ship Positions

Fure West

Last reported at 2016-Feb-13 23:27 UTC. Time now 2016-Feb-13 23:46 UTC.
Position N 58°11' E 011°12'.

Length 144 m; draft 6.6 m.

MMSI: 231775000.

Date/timePositionNaut miles runAvg speedWind from/ knotsBaromVisibWave heightAir tempDewpointWater temp
2016-Feb-13 23:27N 58°11' E 011°12'0 0.0
2016-Feb-13 22:33N 58°11' E 011°12'0 0.0
2016-Feb-13 21:33N 58°11' E 011°12'0 0.0
2016-Feb-13 20:33N 58°11' E 011°12'0 0.0
2016-Feb-13 19:33N 58°11' E 011°12'0 0.0
2016-Feb-13 18:33N 58°11' E 011°12'0 0.0
2016-Feb-13 17:33N 58°11' E 011°12'0 0.0
2016-Feb-13 16:33N 58°11' E 011°12'0 0.0
2016-Feb-13 15:33N 58°11' E 011°12'0 0.0
2016-Feb-13 14:33N 58°11' E 011°12'0 0.0
2016-Feb-13 13:33N 58°11' E 011°12'0 0.0
2016-Feb-13 12:33N 58°11' E 011°12'0 0.0
2016-Feb-13 11:33N 58°11' E 011°12'0 0.0
2016-Feb-13 10:33N 58°11' E 011°12'0 0.0
2016-Feb-13 09:33N 58°11' E 011°12'0 0.0
2016-Feb-13 08:33N 58°11' E 011°12'0 0.1
2016-Feb-13 07:33N 58°11' E 011°12'5 5.3
2016-Feb-13 06:33N 58°06' E 011°12'9 8.8
2016-Feb-13 05:33N 57°57' E 011°15'9 9.0
2016-Feb-13 04:33N 57°48' E 011°19'9 8.7
2016-Feb-13 03:33N 57°40' E 011°23'9 8.7
2016-Feb-13 02:33N 57°32' E 011°30'10 9.7
2016-Feb-13 01:33N 57°24' E 011°41'1010.0
2016-Feb-13 00:33N 57°16' E 011°51'9 9.4
2016-Feb-12 23:33N 57°08' E 011°58'1010.3
2016-Feb-12 22:33N 56°58' E 012°05'10 9.9
2016-Feb-12 21:33N 56°48' E 012°09'10 9.7
2016-Feb-12 20:33N 56°39' E 012°12'10 9.6
2016-Feb-12 19:33N 56°29' E 012°15'10 9.8
2016-Feb-12 18:33N 56°20' E 012°18'10 9.6
2016-Feb-12 17:32N 56°11' E 012°25'1111.3
2016-Feb-12 16:33N 56°03' E 012°40'1110.5
2016-Feb-12 15:33N 55°53' E 012°44'1110.5
2016-Feb-12 14:33N 55°43' E 012°53'7 6.4
2016-Feb-12 13:27N 55°38' E 013°01'0 0.0
2016-Feb-12 12:09N 55°38' E 013°01'0 0.0
2016-Feb-12 11:30N 55°38' E 013°01'0 0.0
2016-Feb-12 10:30N 55°38' E 013°01'0 0.0
2016-Feb-12 09:27N 55°38' E 013°01'0 0.0
2016-Feb-12 08:33N 55°38' E 013°01'0 0.0
2016-Feb-12 07:21N 55°38' E 013°01'0 0.0
2016-Feb-12 06:30N 55°38' E 013°01'0 0.0
2016-Feb-12 05:33N 55°38' E 013°01'0 0.0
2016-Feb-12 04:33N 55°38' E 013°01'0 0.0
2016-Feb-12 03:24N 55°38' E 013°01'0 0.0
2016-Feb-12 02:30N 55°38' E 013°01'1 1.0
2016-Feb-12 01:33N 55°39' E 013°00'1010.2
2016-Feb-12 00:33N 55°47' E 012°49'1212.4
2016-Feb-11 23:33N 55°58' E 012°40'1010.5
2016-Feb-11 22:33N 56°07' E 012°31'1212.4
2016-Feb-11 21:34N 56°14' E 012°13'2813.9
2016-Feb-11 19:33N 56°40' E 011°54'1414.5
2016-Feb-11 18:33N 56°54' E 011°46'1514.8
2016-Feb-11 17:33N 57°08' E 011°37'1414.5
2016-Feb-11 16:33N 57°21' E 011°28'1413.7
2016-Feb-11 15:33N 57°33' E 011°13'1413.9
2016-Feb-11 14:33N 57°42' E 010°54'1313.1
2016-Feb-11 13:32N 57°47' E 010°31'3214.4
2016-Feb-11 11:17N 57°44' E 009°30'1114.5
2016-Feb-11 10:33N 57°43' E 009°10'7114.1
2016-Feb-11 05:29N 57°42' E 006°57'1313.8
2016-Feb-11 04:33N 57°44' E 006°33'1614.4
2016-Feb-11 03:28N 57°54' E 006°11'5413.9
2016-Feb-10 23:33N 58°30' E 004°54'235 4.8
2016-Feb-08 22:07N 58°48' W 002°37'611.7
2016-Feb-08 21:34N 58°45' W 002°48'1313.3
2016-Feb-08 20:33N 58°43' W 003°14'1514.5
2016-Feb-08 19:33N 58°43' W 003°42'1313.1
2016-Feb-08 18:33N 58°42' W 004°07'19010.6
2016-Feb-08 00:33N 55°55' W 006°55'1313.4
2016-Feb-07 23:33N 55°44' W 006°42'1414.0
2016-Feb-07 22:33N 55°33' W 006°26'1212.2
2016-Feb-07 21:33N 55°25' W 006°09'1010.3
2016-Feb-07 20:33N 55°19' W 005°56'1110.7
2016-Feb-07 19:31N 55°09' W 005°47'1212.0
2016-Feb-07 18:33N 54°58' W 005°38'1312.6
2016-Feb-07 17:33N 54°47' W 005°30'1313.3
2016-Feb-07 16:33N 54°34' W 005°22'1313.5
2016-Feb-07 15:33N 54°21' W 005°21'1414.0
2016-Feb-07 14:33N 54°08' W 005°30'33 0.8
2016-Feb-05 19:21N 53°37' W 005°50'1012.2
2016-Feb-05 18:32N 53°47' W 005°44'1212.5
2016-Feb-05 17:33N 53°58' W 005°36'1212.0
2016-Feb-05 16:33N 54°09' W 005°29'1111.1
2016-Feb-05 15:33N 54°19' W 005°22'9 9.3
2016-Feb-05 14:33N 54°29' W 005°20'1111.3
2016-Feb-05 13:33N 54°40' W 005°25'1111.2
2016-Feb-05 12:33N 54°50' W 005°32'2311.5
2016-Feb-05 10:33N 55°10' W 005°53'1111.4
2016-Feb-05 09:33N 55°19' W 006°04'1212.2
2016-Feb-05 08:33N 55°25' W 006°23'1313.1
2016-Feb-05 07:33N 55°36' W 006°35'1313.2
2016-Feb-05 06:33N 55°47' W 006°48'19410.0
2016-Feb-04 11:10N 58°42' W 004°12'813.5
2016-Feb-04 10:33N 58°42' W 003°56'1413.6
2016-Feb-04 09:33N 58°43' W 003°30'1313.1
2016-Feb-04 08:33N 58°43' W 003°04'1212.4
2016-Feb-04 07:33N 58°40' W 002°41'  
Track history (hours):
 
Tides and Currents Weather Stations Pressure Air Temp Water Temp Dewpoint Dewpoint Depression Visibility Wind Speed Wind Dir Waves Ship Positions

Fure West

Last reported at 2016-Feb-13 23:27 UTC. Time now 2016-Feb-13 23:46 UTC.
Position N 58°11' E 011°12'.

Length 144 m; draft 6.6 m.

MMSI: 231775000.

Date/timePositionNaut miles runAvg speedWind from/ knotsBaromVisibWave heightAir tempDewpointWater temp
2016-Feb-13 23:27N 58°11' E 011°12'0 0.0
2016-Feb-13 22:33N 58°11' E 011°12'0 0.0
2016-Feb-13 21:33N 58°11' E 011°12'0 0.0
2016-Feb-13 20:33N 58°11' E 011°12'0 0.0
2016-Feb-13 19:33N 58°11' E 011°12'0 0.0
2016-Feb-13 18:33N 58°11' E 011°12'0 0.0
2016-Feb-13 17:33N 58°11' E 011°12'0 0.0
2016-Feb-13 16:33N 58°11' E 011°12'0 0.0
2016-Feb-13 15:33N 58°11' E 011°12'0 0.0
2016-Feb-13 14:33N 58°11' E 011°12'0 0.0
2016-Feb-13 13:33N 58°11' E 011°12'0 0.0
2016-Feb-13 12:33N 58°11' E 011°12'0 0.0
2016-Feb-13 11:33N 58°11' E 011°12'0 0.0
2016-Feb-13 10:33N 58°11' E 011°12'0 0.0
2016-Feb-13 09:33N 58°11' E 011°12'0 0.0
2016-Feb-13 08:33N 58°11' E 011°12'0 0.1
2016-Feb-13 07:33N 58°11' E 011°12'5 5.3
2016-Feb-13 06:33N 58°06' E 011°12'9 8.8
2016-Feb-13 05:33N 57°57' E 011°15'9 9.0
2016-Feb-13 04:33N 57°48' E 011°19'9 8.7
2016-Feb-13 03:33N 57°40' E 011°23'9 8.7
2016-Feb-13 02:33N 57°32' E 011°30'10 9.7
2016-Feb-13 01:33N 57°24' E 011°41'1010.0
2016-Feb-13 00:33N 57°16' E 011°51'9 9.4
2016-Feb-12 23:33N 57°08' E 011°58'1010.3
2016-Feb-12 22:33N 56°58' E 012°05'10 9.9
2016-Feb-12 21:33N 56°48' E 012°09'10 9.7
2016-Feb-12 20:33N 56°39' E 012°12'10 9.6
2016-Feb-12 19:33N 56°29' E 012°15'10 9.8
2016-Feb-12 18:33N 56°20' E 012°18'10 9.6
2016-Feb-12 17:32N 56°11' E 012°25'1111.3
2016-Feb-12 16:33N 56°03' E 012°40'1110.5
2016-Feb-12 15:33N 55°53' E 012°44'1110.5
2016-Feb-12 14:33N 55°43' E 012°53'7 6.4
2016-Feb-12 13:27N 55°38' E 013°01'0 0.0
2016-Feb-12 12:09N 55°38' E 013°01'0 0.0
2016-Feb-12 11:30N 55°38' E 013°01'0 0.0
2016-Feb-12 10:30N 55°38' E 013°01'0 0.0
2016-Feb-12 09:27N 55°38' E 013°01'0 0.0
2016-Feb-12 08:33N 55°38' E 013°01'0 0.0
2016-Feb-12 07:21N 55°38' E 013°01'0 0.0
2016-Feb-12 06:30N 55°38' E 013°01'0 0.0
2016-Feb-12 05:33N 55°38' E 013°01'0 0.0
2016-Feb-12 04:33N 55°38' E 013°01'0 0.0
2016-Feb-12 03:24N 55°38' E 013°01'0 0.0
2016-Feb-12 02:30N 55°38' E 013°01'1 1.0
2016-Feb-12 01:33N 55°39' E 013°00'1010.2
2016-Feb-12 00:33N 55°47' E 012°49'1212.4
2016-Feb-11 23:33N 55°58' E 012°40'1010.5
2016-Feb-11 22:33N 56°07' E 012°31'1212.4
2016-Feb-11 21:34N 56°14' E 012°13'2813.9
2016-Feb-11 19:33N 56°40' E 011°54'1414.5
2016-Feb-11 18:33N 56°54' E 011°46'1514.8
2016-Feb-11 17:33N 57°08' E 011°37'1414.5
2016-Feb-11 16:33N 57°21' E 011°28'1413.7
2016-Feb-11 15:33N 57°33' E 011°13'1413.9
2016-Feb-11 14:33N 57°42' E 010°54'1313.1
2016-Feb-11 13:32N 57°47' E 010°31'3214.4
2016-Feb-11 11:17N 57°44' E 009°30'1114.5
2016-Feb-11 10:33N 57°43' E 009°10'7114.1
2016-Feb-11 05:29N 57°42' E 006°57'1313.8
2016-Feb-11 04:33N 57°44' E 006°33'1614.4
2016-Feb-11 03:28N 57°54' E 006°11'5413.9
2016-Feb-10 23:33N 58°30' E 004°54'235 4.8
2016-Feb-08 22:07N 58°48' W 002°37'611.7
2016-Feb-08 21:34N 58°45' W 002°48'1313.3
2016-Feb-08 20:33N 58°43' W 003°14'1514.5
2016-Feb-08 19:33N 58°43' W 003°42'1313.1
2016-Feb-08 18:33N 58°42' W 004°07'19010.6
2016-Feb-08 00:33N 55°55' W 006°55'1313.4
2016-Feb-07 23:33N 55°44' W 006°42'1414.0
2016-Feb-07 22:33N 55°33' W 006°26'1212.2
2016-Feb-07 21:33N 55°25' W 006°09'1010.3
2016-Feb-07 20:33N 55°19' W 005°56'1110.7
2016-Feb-07 19:31N 55°09' W 005°47'1212.0
2016-Feb-07 18:33N 54°58' W 005°38'1312.6
2016-Feb-07 17:33N 54°47' W 005°30'1313.3
2016-Feb-07 16:33N 54°34' W 005°22'1313.5
2016-Feb-07 15:33N 54°21' W 005°21'1414.0
2016-Feb-07 14:33N 54°08' W 005°30'33 0.8
2016-Feb-05 19:21N 53°37' W 005°50'1012.2
2016-Feb-05 18:32N 53°47' W 005°44'1212.5
2016-Feb-05 17:33N 53°58' W 005°36'1212.0
2016-Feb-05 16:33N 54°09' W 005°29'1111.1
2016-Feb-05 15:33N 54°19' W 005°22'9 9.3
2016-Feb-05 14:33N 54°29' W 005°20'1111.3
2016-Feb-05 13:33N 54°40' W 005°25'1111.2
2016-Feb-05 12:33N 54°50' W 005°32'2311.5
2016-Feb-05 10:33N 55°10' W 005°53'1111.4
2016-Feb-05 09:33N 55°19' W 006°04'1212.2
2016-Feb-05 08:33N 55°25' W 006°23'1313.1
2016-Feb-05 07:33N 55°36' W 006°35'1313.2
2016-Feb-05 06:33N 55°47' W 006°48'19410.0
2016-Feb-04 11:10N 58°42' W 004°12'813.5
2016-Feb-04 10:33N 58°42' W 003°56'1413.6
2016-Feb-04 09:33N 58°43' W 003°30'1313.1
2016-Feb-04 08:33N 58°43' W 003°04'1212.4
2016-Feb-04 07:33N 58°40' W 002°41'  

Dump ship's entire track history